sensor_id;sensor_type;location;lat;lon;timestamp;temperature;humidity
27848;DHT22;15212;48.830;8.730;2022-11-15T00:01:18;8.70;99.90
27848;DHT22;15212;48.830;8.730;2022-11-15T00:03:50;8.60;99.90
27848;DHT22;15212;48.830;8.730;2022-11-15T00:06:19;8.60;99.90
27848;DHT22;15212;48.830;8.730;2022-11-15T00:08:48;8.60;99.90
27848;DHT22;15212;48.830;8.730;2022-11-15T00:11:16;8.60;99.90
27848;DHT22;15212;48.830;8.730;2022-11-15T00:13:45;8.60;99.90
27848;DHT22;15212;48.830;8.730;2022-11-15T00:16:13;8.70;99.90
27848;DHT22;15212;48.830;8.730;2022-11-15T00:18:42;8.70;99.90
27848;DHT22;15212;48.830;8.730;2022-11-15T00:21:12;8.70;99.90
27848;DHT22;15212;48.830;8.730;2022-11-15T00:23:41;8.70;99.90
27848;DHT22;15212;48.830;8.730;2022-11-15T00:26:14;8.70;99.90
27848;DHT22;15212;48.830;8.730;2022-11-15T00:28:42;8.70;99.90
27848;DHT22;15212;48.830;8.730;2022-11-15T00:31:14;8.70;99.90
27848;DHT22;15212;48.830;8.730;2022-11-15T00:33:43;8.70;99.90
27848;DHT22;15212;48.830;8.730;2022-11-15T00:36:12;8.60;99.90
27848;DHT22;15212;48.830;8.730;2022-11-15T00:38:40;8.60;99.90
27848;DHT22;15212;48.830;8.730;2022-11-15T00:41:09;8.60;99.90
27848;DHT22;15212;48.830;8.730;2022-11-15T00:43:37;8.50;99.90
27848;DHT22;15212;48.830;8.730;2022-11-15T00:46:06;8.50;99.90
27848;DHT22;15212;48.830;8.730;2022-11-15T00:48:36;8.40;99.90
27848;DHT22;15212;48.830;8.730;2022-11-15T00:51:05;8.40;99.90
27848;DHT22;15212;48.830;8.730;2022-11-15T00:53:33;8.30;99.90
27848;DHT22;15212;48.830;8.730;2022-11-15T00:56:02;8.30;99.90
27848;DHT22;15212;48.830;8.730;2022-11-15T00:58:30;8.30;99.90
27848;DHT22;15212;48.830;8.730;2022-11-15T01:01:10;8.30;99.90
27848;DHT22;15212;48.830;8.730;2022-11-15T01:03:41;8.20;99.90
27848;DHT22;15212;48.830;8.730;2022-11-15T01:06:10;8.20;99.90
27848;DHT22;15212;48.830;8.730;2022-11-15T01:08:41;8.20;99.90
27848;DHT22;15212;48.830;8.730;2022-11-15T01:11:11;8.10;99.90
27848;DHT22;15212;48.830;8.730;2022-11-15T01:13:40;8.10;99.90
27848;DHT22;15212;48.830;8.730;2022-11-15T01:16:11;8.10;99.90
27848;DHT22;15212;48.830;8.730;2022-11-15T01:18:41;8.10;99.90
27848;DHT22;15212;48.830;8.730;2022-11-15T01:21:12;8.10;99.90
27848;DHT22;15212;48.830;8.730;2022-11-15T01:23:42;8.20;99.90
27848;DHT22;15212;48.830;8.730;2022-11-15T01:26:13;8.20;99.90
27848;DHT22;15212;48.830;8.730;2022-11-15T01:28:42;8.20;99.90
27848;DHT22;15212;48.830;8.730;2022-11-15T01:31:14;8.20;99.90
27848;DHT22;15212;48.830;8.730;2022-11-15T01:33:44;8.20;99.90
27848;DHT22;15212;48.830;8.730;2022-11-15T01:36:17;8.30;99.90
27848;DHT22;15212;48.830;8.730;2022-11-15T01:38:55;8.30;99.90
27848;DHT22;15212;48.830;8.730;2022-11-15T01:41:27;8.30;99.90
27848;DHT22;15212;48.830;8.730;2022-11-15T01:47:08;8.30;99.90
27848;DHT22;15212;48.830;8.730;2022-11-15T01:49:39;8.30;99.90
27848;DHT22;15212;48.830;8.730;2022-11-15T01:52:13;8.30;99.90
27848;DHT22;15212;48.830;8.730;2022-11-15T01:54:43;8.30;99.90
27848;DHT22;15212;48.830;8.730;2022-11-15T01:57:12;8.40;99.90
27848;DHT22;15212;48.830;8.730;2022-11-15T01:59:43;8.40;99.90
27848;DHT22;15212;48.830;8.730;2022-11-15T02:02:12;8.40;99.90
27848;DHT22;15212;48.830;8.730;2022-11-15T02:04:43;8.40;99.90
27848;DHT22;15212;48.830;8.730;2022-11-15T02:07:18;8.40;99.90
27848;DHT22;15212;48.830;8.730;2022-11-15T02:09:47;8.40;99.90
27848;DHT22;15212;48.830;8.730;2022-11-15T02:12:19;8.40;99.90
27848;DHT22;15212;48.830;8.730;2022-11-15T02:14:53;8.40;99.90
27848;DHT22;15212;48.830;8.730;2022-11-15T02:17:43;8.50;99.90
27848;DHT22;15212;48.830;8.730;2022-11-15T02:26:42;8.60;99.90
27848;DHT22;15212;48.830;8.730;2022-11-15T02:29:15;8.50;99.90
27848;DHT22;15212;48.830;8.730;2022-11-15T02:31:57;8.60;99.90
27848;DHT22;15212;48.830;8.730;2022-11-15T02:37:34;8.60;99.90
27848;DHT22;15212;48.830;8.730;2022-11-15T02:40:38;8.60;99.90
27848;DHT22;15212;48.830;8.730;2022-11-15T02:46:32;8.60;99.90
27848;DHT22;15212;48.830;8.730;2022-11-15T02:49:20;8.60;99.90
27848;DHT22;15212;48.830;8.730;2022-11-15T02:51:51;8.60;99.90
27848;DHT22;15212;48.830;8.730;2022-11-15T02:54:23;8.60;99.90
27848;DHT22;15212;48.830;8.730;2022-11-15T02:56:56;8.60;99.90
27848;DHT22;15212;48.830;8.730;2022-11-15T02:59:32;8.70;99.90
27848;DHT22;15212;48.830;8.730;2022-11-15T03:02:41;8.70;99.90
27848;DHT22;15212;48.830;8.730;2022-11-15T03:05:35;8.70;99.90
27848;DHT22;15212;48.830;8.730;2022-11-15T03:08:31;8.80;99.90
27848;DHT22;15212;48.830;8.730;2022-11-15T03:11:08;8.70;99.90
27848;DHT22;15212;48.830;8.730;2022-11-15T03:13:53;8.70;99.90
27848;DHT22;15212;48.830;8.730;2022-11-15T03:19:40;8.80;99.90
27848;DHT22;15212;48.830;8.730;2022-11-15T03:22:09;8.80;99.90
27848;DHT22;15212;48.830;8.730;2022-11-15T03:24:39;8.80;99.90
27848;DHT22;15212;48.830;8.730;2022-11-15T03:27:10;8.90;99.90
27848;DHT22;15212;48.830;8.730;2022-11-15T03:29:43;8.90;99.90
27848;DHT22;15212;48.830;8.730;2022-11-15T03:32:19;8.90;99.90
27848;DHT22;15212;48.830;8.730;2022-11-15T03:34:49;8.90;99.90
27848;DHT22;15212;48.830;8.730;2022-11-15T03:37:22;8.90;99.90
27848;DHT22;15212;48.830;8.730;2022-11-15T03:39:52;8.90;99.90
27848;DHT22;15212;48.830;8.730;2022-11-15T03:42:30;9.00;99.90
27848;DHT22;15212;48.830;8.730;2022-11-15T03:47:48;9.00;99.90
27848;DHT22;15212;48.830;8.730;2022-11-15T03:50:29;9.00;99.90
27848;DHT22;15212;48.830;8.730;2022-11-15T03:52:58;9.00;99.90
27848;DHT22;15212;48.830;8.730;2022-11-15T03:55:26;8.90;99.90
27848;DHT22;15212;48.830;8.730;2022-11-15T03:57:57;8.90;99.90
27848;DHT22;15212;48.830;8.730;2022-11-15T04:00:27;8.90;99.90
27848;DHT22;15212;48.830;8.730;2022-11-15T04:02:56;8.90;99.90
27848;DHT22;15212;48.830;8.730;2022-11-15T04:05:25;8.90;99.90
27848;DHT22;15212;48.830;8.730;2022-11-15T04:07:53;8.90;99.90
27848;DHT22;15212;48.830;8.730;2022-11-15T04:10:21;8.90;99.90
27848;DHT22;15212;48.830;8.730;2022-11-15T04:12:50;8.90;99.90
27848;DHT22;15212;48.830;8.730;2022-11-15T04:15:23;9.00;99.90
27848;DHT22;15212;48.830;8.730;2022-11-15T04:17:55;9.00;99.90
27848;DHT22;15212;48.830;8.730;2022-11-15T04:20:27;9.00;99.90
27848;DHT22;15212;48.830;8.730;2022-11-15T04:23:19;8.90;99.90
27848;DHT22;15212;48.830;8.730;2022-11-15T04:26:08;9.00;99.90
27848;DHT22;15212;48.830;8.730;2022-11-15T04:28:38;8.90;99.90
27848;DHT22;15212;48.830;8.730;2022-11-15T04:31:24;8.90;99.90
27848;DHT22;15212;48.830;8.730;2022-11-15T04:33:53;8.90;99.90
27848;DHT22;15212;48.830;8.730;2022-11-15T04:36:21;8.80;99.90
27848;DHT22;15212;48.830;8.730;2022-11-15T04:39:08;8.80;99.90
27848;DHT22;15212;48.830;8.730;2022-11-15T04:41:36;8.80;99.90
27848;DHT22;15212;48.830;8.730;2022-11-15T04:44:05;8.80;99.90
27848;DHT22;15212;48.830;8.730;2022-11-15T04:46:33;8.80;99.90
27848;DHT22;15212;48.830;8.730;2022-11-15T04:49:02;8.80;99.90
27848;DHT22;15212;48.830;8.730;2022-11-15T04:51:30;8.70;99.90
27848;DHT22;15212;48.830;8.730;2022-11-15T04:53:58;8.80;99.90
27848;DHT22;15212;48.830;8.730;2022-11-15T04:56:27;8.70;99.90
27848;DHT22;15212;48.830;8.730;2022-11-15T04:58:55;8.70;99.90
27848;DHT22;15212;48.830;8.730;2022-11-15T05:01:23;8.70;99.90
27848;DHT22;15212;48.830;8.730;2022-11-15T05:03:52;8.80;99.90
27848;DHT22;15212;48.830;8.730;2022-11-15T05:06:38;8.80;99.90
27848;DHT22;15212;48.830;8.730;2022-11-15T05:09:07;8.90;99.90
27848;DHT22;15212;48.830;8.730;2022-11-15T05:11:35;8.90;99.90
27848;DHT22;15212;48.830;8.730;2022-11-15T05:14:04;8.80;99.90
27848;DHT22;15212;48.830;8.730;2022-11-15T05:16:32;8.80;99.90
27848;DHT22;15212;48.830;8.730;2022-11-15T05:19:00;8.80;99.90
27848;DHT22;15212;48.830;8.730;2022-11-15T05:21:29;8.80;99.90
27848;DHT22;15212;48.830;8.730;2022-11-15T05:23:58;8.80;99.90
27848;DHT22;15212;48.830;8.730;2022-11-15T05:26:26;8.70;99.90
27848;DHT22;15212;48.830;8.730;2022-11-15T05:28:56;8.70;99.90
27848;DHT22;15212;48.830;8.730;2022-11-15T05:31:26;8.70;99.90
27848;DHT22;15212;48.830;8.730;2022-11-15T05:33:56;8.60;99.90
27848;DHT22;15212;48.830;8.730;2022-11-15T05:36:43;8.60;99.90
27848;DHT22;15212;48.830;8.730;2022-11-15T05:39:12;8.60;99.90
27848;DHT22;15212;48.830;8.730;2022-11-15T05:41:46;8.60;99.90
27848;DHT22;15212;48.830;8.730;2022-11-15T05:44:26;8.60;99.90
27848;DHT22;15212;48.830;8.730;2022-11-15T05:46:56;8.60;99.90
27848;DHT22;15212;48.830;8.730;2022-11-15T05:49:27;8.60;99.90
27848;DHT22;15212;48.830;8.730;2022-11-15T05:51:58;8.60;99.90
27848;DHT22;15212;48.830;8.730;2022-11-15T05:54:27;8.60;99.90
27848;DHT22;15212;48.830;8.730;2022-11-15T05:56:55;8.70;99.90
27848;DHT22;15212;48.830;8.730;2022-11-15T05:59:24;8.70;99.90
27848;DHT22;15212;48.830;8.730;2022-11-15T06:01:52;8.70;99.90
27848;DHT22;15212;48.830;8.730;2022-11-15T06:04:21;8.80;99.90
27848;DHT22;15212;48.830;8.730;2022-11-15T06:06:49;8.80;99.90
27848;DHT22;15212;48.830;8.730;2022-11-15T06:09:17;8.70;99.90
27848;DHT22;15212;48.830;8.730;2022-11-15T06:11:46;8.60;99.90
27848;DHT22;15212;48.830;8.730;2022-11-15T06:14:14;8.50;99.90
27848;DHT22;15212;48.830;8.730;2022-11-15T06:16:43;8.40;99.90
27848;DHT22;15212;48.830;8.730;2022-11-15T06:19:11;8.40;99.90
27848;DHT22;15212;48.830;8.730;2022-11-15T06:21:40;8.40;99.90
27848;DHT22;15212;48.830;8.730;2022-11-15T06:24:08;8.30;99.90
27848;DHT22;15212;48.830;8.730;2022-11-15T06:26:37;8.30;99.90
27848;DHT22;15212;48.830;8.730;2022-11-15T06:29:05;8.20;99.90
27848;DHT22;15212;48.830;8.730;2022-11-15T06:31:34;8.20;99.90
27848;DHT22;15212;48.830;8.730;2022-11-15T06:34:03;8.20;99.90
27848;DHT22;15212;48.830;8.730;2022-11-15T06:36:31;8.20;99.90
27848;DHT22;15212;48.830;8.730;2022-11-15T06:39:04;8.20;99.90
27848;DHT22;15212;48.830;8.730;2022-11-15T06:41:35;8.30;99.90
27848;DHT22;15212;48.830;8.730;2022-11-15T06:44:04;8.30;99.90
27848;DHT22;15212;48.830;8.730;2022-11-15T06:46:32;8.40;99.90
27848;DHT22;15212;48.830;8.730;2022-11-15T06:49:00;8.40;99.90
27848;DHT22;15212;48.830;8.730;2022-11-15T06:51:29;8.50;99.90
27848;DHT22;15212;48.830;8.730;2022-11-15T06:53:57;8.50;99.90
27848;DHT22;15212;48.830;8.730;2022-11-15T06:56:26;8.60;99.90
27848;DHT22;15212;48.830;8.730;2022-11-15T06:58:55;8.60;99.90
27848;DHT22;15212;48.830;8.730;2022-11-15T07:01:23;8.60;99.90
27848;DHT22;15212;48.830;8.730;2022-11-15T07:03:52;8.60;99.90
27848;DHT22;15212;48.830;8.730;2022-11-15T07:06:20;8.60;99.90
27848;DHT22;15212;48.830;8.730;2022-11-15T07:08:48;8.70;99.90
27848;DHT22;15212;48.830;8.730;2022-11-15T07:11:17;8.70;99.90
27848;DHT22;15212;48.830;8.730;2022-11-15T07:13:45;8.80;99.90
27848;DHT22;15212;48.830;8.730;2022-11-15T07:16:14;8.90;99.90
27848;DHT22;15212;48.830;8.730;2022-11-15T07:18:42;8.90;99.90
27848;DHT22;15212;48.830;8.730;2022-11-15T07:21:10;9.00;99.90
27848;DHT22;15212;48.830;8.730;2022-11-15T07:23:39;9.10;99.90
27848;DHT22;15212;48.830;8.730;2022-11-15T07:26:08;9.20;99.90
27848;DHT22;15212;48.830;8.730;2022-11-15T07:28:36;9.30;99.90
27848;DHT22;15212;48.830;8.730;2022-11-15T07:31:07;9.40;99.90
27848;DHT22;15212;48.830;8.730;2022-11-15T07:33:36;9.40;99.90
27848;DHT22;15212;48.830;8.730;2022-11-15T07:36:05;9.40;99.90
27848;DHT22;15212;48.830;8.730;2022-11-15T07:38:35;9.50;99.90
27848;DHT22;15212;48.830;8.730;2022-11-15T07:41:05;9.50;99.90
27848;DHT22;15212;48.830;8.730;2022-11-15T07:43:33;9.50;99.90
27848;DHT22;15212;48.830;8.730;2022-11-15T07:46:06;9.60;99.90
27848;DHT22;15212;48.830;8.730;2022-11-15T07:48:37;9.60;99.90
27848;DHT22;15212;48.830;8.730;2022-11-15T07:51:07;9.60;99.90
27848;DHT22;15212;48.830;8.730;2022-11-15T07:53:42;9.70;99.90
27848;DHT22;15212;48.830;8.730;2022-11-15T07:56:11;9.80;99.90
27848;DHT22;15212;48.830;8.730;2022-11-15T07:58:39;9.90;99.90
27848;DHT22;15212;48.830;8.730;2022-11-15T08:01:09;10.00;99.90
27848;DHT22;15212;48.830;8.730;2022-11-15T08:03:38;10.10;99.90
27848;DHT22;15212;48.830;8.730;2022-11-15T08:06:07;10.20;99.90
27848;DHT22;15212;48.830;8.730;2022-11-15T08:08:35;10.30;99.90
27848;DHT22;15212;48.830;8.730;2022-11-15T08:11:04;10.50;99.90
27848;DHT22;15212;48.830;8.730;2022-11-15T08:13:32;10.60;99.90
27848;DHT22;15212;48.830;8.730;2022-11-15T08:16:01;10.70;99.90
27848;DHT22;15212;48.830;8.730;2022-11-15T08:18:31;10.80;99.90
27848;DHT22;15212;48.830;8.730;2022-11-15T08:21:01;10.80;99.90
27848;DHT22;15212;48.830;8.730;2022-11-15T08:23:29;10.70;99.90
27848;DHT22;15212;48.830;8.730;2022-11-15T08:26:05;10.70;99.90
27848;DHT22;15212;48.830;8.730;2022-11-15T08:28:33;10.70;99.90
27848;DHT22;15212;48.830;8.730;2022-11-15T08:31:02;10.70;99.90
27848;DHT22;15212;48.830;8.730;2022-11-15T08:33:32;10.80;99.90
27848;DHT22;15212;48.830;8.730;2022-11-15T08:36:03;10.90;99.90
27848;DHT22;15212;48.830;8.730;2022-11-15T08:38:31;10.90;99.90
27848;DHT22;15212;48.830;8.730;2022-11-15T08:41:02;10.90;99.90
27848;DHT22;15212;48.830;8.730;2022-11-15T08:43:32;11.00;99.90
27848;DHT22;15212;48.830;8.730;2022-11-15T08:46:01;11.00;99.90
27848;DHT22;15212;48.830;8.730;2022-11-15T08:48:29;11.10;99.90
27848;DHT22;15212;48.830;8.730;2022-11-15T08:50:58;11.10;99.90
27848;DHT22;15212;48.830;8.730;2022-11-15T08:53:26;11.10;99.90
27848;DHT22;15212;48.830;8.730;2022-11-15T08:55:55;11.20;99.90
27848;DHT22;15212;48.830;8.730;2022-11-15T08:58:23;11.30;99.90
27848;DHT22;15212;48.830;8.730;2022-11-15T09:00:52;11.50;99.90
27848;DHT22;15212;48.830;8.730;2022-11-15T09:03:20;11.60;99.90
27848;DHT22;15212;48.830;8.730;2022-11-15T09:05:48;11.80;99.90
27848;DHT22;15212;48.830;8.730;2022-11-15T09:08:24;12.00;99.90
27848;DHT22;15212;48.830;8.730;2022-11-15T09:10:53;12.20;99.90
27848;DHT22;15212;48.830;8.730;2022-11-15T09:13:22;12.30;99.90
27848;DHT22;15212;48.830;8.730;2022-11-15T09:15:50;12.40;99.90
27848;DHT22;15212;48.830;8.730;2022-11-15T09:18:18;12.60;99.90
27848;DHT22;15212;48.830;8.730;2022-11-15T09:20:49;12.80;99.90
27848;DHT22;15212;48.830;8.730;2022-11-15T09:23:17;12.90;99.90
27848;DHT22;15212;48.830;8.730;2022-11-15T09:25:45;13.00;99.90
27848;DHT22;15212;48.830;8.730;2022-11-15T09:28:14;13.00;99.90
27848;DHT22;15212;48.830;8.730;2022-11-15T09:30:42;13.00;99.90
27848;DHT22;15212;48.830;8.730;2022-11-15T09:33:12;13.10;99.90
27848;DHT22;15212;48.830;8.730;2022-11-15T09:35:40;13.10;99.90
27848;DHT22;15212;48.830;8.730;2022-11-15T09:38:09;13.10;99.90
27848;DHT22;15212;48.830;8.730;2022-11-15T09:40:37;13.10;99.90
27848;DHT22;15212;48.830;8.730;2022-11-15T09:43:24;13.10;99.90
27848;DHT22;15212;48.830;8.730;2022-11-15T09:48:59;13.10;99.90
27848;DHT22;15212;48.830;8.730;2022-11-15T09:51:33;13.10;99.90
27848;DHT22;15212;48.830;8.730;2022-11-15T09:54:11;13.10;99.90
27848;DHT22;15212;48.830;8.730;2022-11-15T09:56:50;13.10;99.90
27848;DHT22;15212;48.830;8.730;2022-11-15T10:05:45;12.90;99.90
27848;DHT22;15212;48.830;8.730;2022-11-15T10:08:57;13.00;99.90
27848;DHT22;15212;48.830;8.730;2022-11-15T10:11:25;13.00;99.90
27848;DHT22;15212;48.830;8.730;2022-11-15T10:14:04;13.00;99.90
27848;DHT22;15212;48.830;8.730;2022-11-15T10:19:47;12.80;99.90
27848;DHT22;15212;48.830;8.730;2022-11-15T10:22:21;12.70;99.90
27848;DHT22;15212;48.830;8.730;2022-11-15T10:27:40;12.70;99.90
27848;DHT22;15212;48.830;8.730;2022-11-15T10:30:17;12.60;99.90
27848;DHT22;15212;48.830;8.730;2022-11-15T10:32:48;12.60;99.90
27848;DHT22;15212;48.830;8.730;2022-11-15T10:35:22;12.70;99.90
27848;DHT22;15212;48.830;8.730;2022-11-15T10:38:27;12.70;99.90
27848;DHT22;15212;48.830;8.730;2022-11-15T10:40:35;12.70;99.90
27848;DHT22;15212;48.830;8.730;2022-11-15T10:43:19;12.70;99.90
27848;DHT22;15212;48.830;8.730;2022-11-15T10:45:45;12.70;99.90
27848;DHT22;15212;48.830;8.730;2022-11-15T10:50:50;12.60;99.90
27848;DHT22;15212;48.830;8.730;2022-11-15T10:53:33;12.60;99.90
27848;DHT22;15212;48.830;8.730;2022-11-15T10:56:05;12.60;99.90
27848;DHT22;15212;48.830;8.730;2022-11-15T10:58:40;12.50;99.90
27848;DHT22;15212;48.830;8.730;2022-11-15T11:01:12;12.50;99.90
27848;DHT22;15212;48.830;8.730;2022-11-15T11:04:02;12.50;99.90
27848;DHT22;15212;48.830;8.730;2022-11-15T11:06:55;12.50;99.90
27848;DHT22;15212;48.830;8.730;2022-11-15T11:09:37;12.40;99.90
27848;DHT22;15212;48.830;8.730;2022-11-15T11:12:10;12.40;99.90
27848;DHT22;15212;48.830;8.730;2022-11-15T11:14:39;12.50;99.90
27848;DHT22;15212;48.830;8.730;2022-11-15T11:20:30;12.50;99.90
27848;DHT22;15212;48.830;8.730;2022-11-15T11:23:34;12.60;99.90
27848;DHT22;15212;48.830;8.730;2022-11-15T11:29:57;12.90;99.90
27848;DHT22;15212;48.830;8.730;2022-11-15T11:33:08;13.00;99.90
27848;DHT22;15212;48.830;8.730;2022-11-15T11:36:09;13.10;99.90
27848;DHT22;15212;48.830;8.730;2022-11-15T11:38:56;13.20;99.90
27848;DHT22;15212;48.830;8.730;2022-11-15T11:47:23;13.20;99.90
27848;DHT22;15212;48.830;8.730;2022-11-15T11:49:55;13.20;99.90
27848;DHT22;15212;48.830;8.730;2022-11-15T11:52:34;13.20;99.90
27848;DHT22;15212;48.830;8.730;2022-11-15T11:58:19;13.20;99.90
27848;DHT22;15212;48.830;8.730;2022-11-15T12:00:55;13.20;99.90
27848;DHT22;15212;48.830;8.730;2022-11-15T12:03:51;13.10;99.90
27848;DHT22;15212;48.830;8.730;2022-11-15T12:06:49;13.10;99.90
27848;DHT22;15212;48.830;8.730;2022-11-15T12:09:34;13.10;99.90
27848;DHT22;15212;48.830;8.730;2022-11-15T12:12:27;13.10;99.90
27848;DHT22;15212;48.830;8.730;2022-11-15T12:15:14;13.10;99.90
27848;DHT22;15212;48.830;8.730;2022-11-15T12:17:47;13.00;99.90
27848;DHT22;15212;48.830;8.730;2022-11-15T12:20:25;13.00;99.90
27848;DHT22;15212;48.830;8.730;2022-11-15T12:23:00;13.00;99.90
27848;DHT22;15212;48.830;8.730;2022-11-15T12:28:40;12.80;99.90
27848;DHT22;15212;48.830;8.730;2022-11-15T12:36:58;12.80;99.90
27848;DHT22;15212;48.830;8.730;2022-11-15T12:43:02;12.80;99.90
27848;DHT22;15212;48.830;8.730;2022-11-15T12:45:38;12.90;99.90
27848;DHT22;15212;48.830;8.730;2022-11-15T12:51:05;12.90;99.90
27848;DHT22;15212;48.830;8.730;2022-11-15T12:53:34;12.90;99.90
27848;DHT22;15212;48.830;8.730;2022-11-15T12:58:51;12.90;99.90
27848;DHT22;15212;48.830;8.730;2022-11-15T13:06:55;13.00;99.90
27848;DHT22;15212;48.830;8.730;2022-11-15T13:12:09;13.10;99.90
27848;DHT22;15212;48.830;8.730;2022-11-15T13:14:42;13.10;99.90
27848;DHT22;15212;48.830;8.730;2022-11-15T13:22:50;13.20;99.90
27848;DHT22;15212;48.830;8.730;2022-11-15T13:31:26;13.10;99.90
27848;DHT22;15212;48.830;8.730;2022-11-15T13:34:23;13.10;99.90
27848;DHT22;15212;48.830;8.730;2022-11-15T13:36:47;13.00;99.90
27848;DHT22;15212;48.830;8.730;2022-11-15T13:39:30;13.00;99.90
27848;DHT22;15212;48.830;8.730;2022-11-15T13:42:00;13.00;99.90
27848;DHT22;15212;48.830;8.730;2022-11-15T13:44:33;12.90;99.90
27848;DHT22;15212;48.830;8.730;2022-11-15T13:47:07;12.90;99.90
27848;DHT22;15212;48.830;8.730;2022-11-15T13:49:42;12.90;99.90
27848;DHT22;15212;48.830;8.730;2022-11-15T13:52:17;12.80;99.90
27848;DHT22;15212;48.830;8.730;2022-11-15T13:54:52;12.80;99.90
27848;DHT22;15212;48.830;8.730;2022-11-15T13:57:29;12.80;99.90
27848;DHT22;15212;48.830;8.730;2022-11-15T14:00:04;12.80;99.90
27848;DHT22;15212;48.830;8.730;2022-11-15T14:02:35;12.70;99.90
27848;DHT22;15212;48.830;8.730;2022-11-15T14:05:16;12.70;99.90
27848;DHT22;15212;48.830;8.730;2022-11-15T14:08:01;12.70;99.90
27848;DHT22;15212;48.830;8.730;2022-11-15T14:10:34;12.60;99.90
27848;DHT22;15212;48.830;8.730;2022-11-15T14:13:10;12.60;99.90
27848;DHT22;15212;48.830;8.730;2022-11-15T14:15:39;12.60;99.90
27848;DHT22;15212;48.830;8.730;2022-11-15T14:18:37;12.50;99.90
27848;DHT22;15212;48.830;8.730;2022-11-15T14:20:41;12.50;99.90
27848;DHT22;15212;48.830;8.730;2022-11-15T14:23:24;12.50;99.90
27848;DHT22;15212;48.830;8.730;2022-11-15T14:25:59;12.50;99.90
27848;DHT22;15212;48.830;8.730;2022-11-15T14:31:00;12.40;99.90
27848;DHT22;15212;48.830;8.730;2022-11-15T14:33:34;12.40;99.90
27848;DHT22;15212;48.830;8.730;2022-11-15T14:36:18;12.30;99.90
27848;DHT22;15212;48.830;8.730;2022-11-15T14:38:47;12.30;99.90
27848;DHT22;15212;48.830;8.730;2022-11-15T14:41:19;12.30;99.90
27848;DHT22;15212;48.830;8.730;2022-11-15T14:43:50;12.20;99.90
27848;DHT22;15212;48.830;8.730;2022-11-15T14:46:19;12.20;99.90
27848;DHT22;15212;48.830;8.730;2022-11-15T14:48:48;12.20;99.90
27848;DHT22;15212;48.830;8.730;2022-11-15T14:51:17;12.20;99.90
27848;DHT22;15212;48.830;8.730;2022-11-15T14:53:46;12.20;99.90
27848;DHT22;15212;48.830;8.730;2022-11-15T14:56:15;12.20;99.90
27848;DHT22;15212;48.830;8.730;2022-11-15T14:58:44;12.20;99.90
27848;DHT22;15212;48.830;8.730;2022-11-15T15:01:21;12.20;99.90
27848;DHT22;15212;48.830;8.730;2022-11-15T15:03:53;12.10;99.90
27848;DHT22;15212;48.830;8.730;2022-11-15T15:06:25;12.10;99.90
27848;DHT22;15212;48.830;8.730;2022-11-15T15:08:54;12.10;99.90
27848;DHT22;15212;48.830;8.730;2022-11-15T15:11:25;12.10;99.90
27848;DHT22;15212;48.830;8.730;2022-11-15T15:13:54;12.10;99.90
27848;DHT22;15212;48.830;8.730;2022-11-15T15:16:24;12.00;99.90
27848;DHT22;15212;48.830;8.730;2022-11-15T15:18:54;12.00;99.90
27848;DHT22;15212;48.830;8.730;2022-11-15T15:21:24;11.90;99.90
27848;DHT22;15212;48.830;8.730;2022-11-15T15:23:58;11.90;99.90
27848;DHT22;15212;48.830;8.730;2022-11-15T15:26:26;11.90;99.90
27848;DHT22;15212;48.830;8.730;2022-11-15T15:28:54;11.80;99.90
27848;DHT22;15212;48.830;8.730;2022-11-15T15:31:23;11.80;99.90
27848;DHT22;15212;48.830;8.730;2022-11-15T15:33:51;11.80;99.90
27848;DHT22;15212;48.830;8.730;2022-11-15T15:36:19;11.70;99.90
27848;DHT22;15212;48.830;8.730;2022-11-15T15:38:48;11.70;99.90
27848;DHT22;15212;48.830;8.730;2022-11-15T15:41:17;11.70;99.90
27848;DHT22;15212;48.830;8.730;2022-11-15T15:43:45;11.70;99.90
27848;DHT22;15212;48.830;8.730;2022-11-15T15:46:18;11.60;99.90
27848;DHT22;15212;48.830;8.730;2022-11-15T15:48:47;11.70;99.90
27848;DHT22;15212;48.830;8.730;2022-11-15T15:51:16;11.70;99.90
27848;DHT22;15212;48.830;8.730;2022-11-15T15:53:44;11.60;99.90
27848;DHT22;15212;48.830;8.730;2022-11-15T15:56:13;11.60;99.90
27848;DHT22;15212;48.830;8.730;2022-11-15T15:58:41;11.60;99.90
27848;DHT22;15212;48.830;8.730;2022-11-15T16:01:10;11.60;99.90
27848;DHT22;15212;48.830;8.730;2022-11-15T16:03:38;11.60;99.90
27848;DHT22;15212;48.830;8.730;2022-11-15T16:06:51;11.60;99.90
27848;DHT22;15212;48.830;8.730;2022-11-15T16:08:51;11.60;99.90
27848;DHT22;15212;48.830;8.730;2022-11-15T16:11:19;11.60;99.90
27848;DHT22;15212;48.830;8.730;2022-11-15T16:13:48;11.60;99.90
27848;DHT22;15212;48.830;8.730;2022-11-15T16:16:18;11.50;99.90
27848;DHT22;15212;48.830;8.730;2022-11-15T16:18:47;11.50;99.90
27848;DHT22;15212;48.830;8.730;2022-11-15T16:21:16;11.50;99.90
27848;DHT22;15212;48.830;8.730;2022-11-15T16:23:44;11.50;99.90
27848;DHT22;15212;48.830;8.730;2022-11-15T16:26:27;11.50;99.90
27848;DHT22;15212;48.830;8.730;2022-11-15T16:28:56;11.50;99.90
27848;DHT22;15212;48.830;8.730;2022-11-15T16:31:24;11.50;99.90
27848;DHT22;15212;48.830;8.730;2022-11-15T16:33:53;11.50;99.90
27848;DHT22;15212;48.830;8.730;2022-11-15T16:36:23;11.50;99.90
27848;DHT22;15212;48.830;8.730;2022-11-15T16:38:52;11.50;99.90
27848;DHT22;15212;48.830;8.730;2022-11-15T16:41:20;11.50;99.90
27848;DHT22;15212;48.830;8.730;2022-11-15T16:43:49;11.50;99.90
27848;DHT22;15212;48.830;8.730;2022-11-15T16:46:20;11.40;99.90
27848;DHT22;15212;48.830;8.730;2022-11-15T16:48:53;11.40;99.90
27848;DHT22;15212;48.830;8.730;2022-11-15T16:51:22;11.40;99.90
27848;DHT22;15212;48.830;8.730;2022-11-15T16:53:51;11.40;99.90
27848;DHT22;15212;48.830;8.730;2022-11-15T16:56:27;11.40;99.90
27848;DHT22;15212;48.830;8.730;2022-11-15T16:58:57;11.40;99.90
27848;DHT22;15212;48.830;8.730;2022-11-15T17:01:31;11.50;99.90
27848;DHT22;15212;48.830;8.730;2022-11-15T17:04:02;11.40;99.90
27848;DHT22;15212;48.830;8.730;2022-11-15T17:06:32;11.40;99.90
27848;DHT22;15212;48.830;8.730;2022-11-15T17:09:00;11.40;99.90
27848;DHT22;15212;48.830;8.730;2022-11-15T17:11:29;11.40;99.90
27848;DHT22;15212;48.830;8.730;2022-11-15T17:13:58;11.40;99.90
27848;DHT22;15212;48.830;8.730;2022-11-15T17:16:26;11.40;99.90
27848;DHT22;15212;48.830;8.730;2022-11-15T17:18:55;11.40;99.90
27848;DHT22;15212;48.830;8.730;2022-11-15T17:21:23;11.40;99.90
27848;DHT22;15212;48.830;8.730;2022-11-15T17:23:53;11.40;99.90
27848;DHT22;15212;48.830;8.730;2022-11-15T17:26:22;11.40;99.90
27848;DHT22;15212;48.830;8.730;2022-11-15T17:28:55;11.50;99.90
27848;DHT22;15212;48.830;8.730;2022-11-15T17:31:24;11.40;99.90
27848;DHT22;15212;48.830;8.730;2022-11-15T17:33:53;11.40;99.90
27848;DHT22;15212;48.830;8.730;2022-11-15T17:36:21;11.40;99.90
27848;DHT22;15212;48.830;8.730;2022-11-15T17:38:49;11.40;99.90
27848;DHT22;15212;48.830;8.730;2022-11-15T17:41:18;11.40;99.90
27848;DHT22;15212;48.830;8.730;2022-11-15T17:43:47;11.40;99.90
27848;DHT22;15212;48.830;8.730;2022-11-15T17:46:19;11.50;99.90